Time;durP1;ratioP1;P1;durP2;ratioP2;P2;SDS_P1;SDS_P2;PMS_P1;PMS_P2;Temp;Humidity;BMP_temperature;BMP_pressure;BME280_temperature;BME280_humidity;BME280_pressure;Samples;Min_cycle;Max_cycle;Signal;HPM_P1;HPM_P2
2023/09/14 00:01:31;;;;;;;3.27;3.00;;;17.70;93.20;;;;;;5096034;28;20436;-57
2023/09/14 00:03:57;;;;;;;3.53;3.23;;;17.70;93.30;;;;;;5094653;28;20444;-57
2023/09/14 00:06:26;;;;;;;8.00;3.40;;;17.60;93.30;;;;;;5095006;28;20440;-57
2023/09/14 00:08:53;;;;;;;3.77;2.90;;;17.60;93.50;;;;;;5085411;28;20468;-56
2023/09/14 00:11:20;;;;;;;3.77;2.80;;;17.60;93.40;;;;;;5077122;28;20559;-57
2023/09/14 00:13:47;;;;;;;4.00;2.77;;;17.60;93.40;;;;;;5078079;28;20475;-57
2023/09/14 00:16:14;;;;;;;3.20;2.90;;;17.50;93.40;;;;;;5094609;28;20447;-57
2023/09/14 00:18:40;;;;;;;3.30;3.03;;;17.50;93.40;;;;;;5094666;28;20468;-57
2023/09/14 00:21:07;;;;;;;4.13;2.87;;;17.50;93.40;;;;;;5090477;28;20433;-56
2023/09/14 00:23:35;;;;;;;3.27;2.97;;;17.50;93.40;;;;;;5074162;28;20466;-57
2023/09/14 00:26:02;;;;;;;4.40;2.87;;;17.50;93.40;;;;;;5074305;28;20417;-57
2023/09/14 00:28:29;;;;;;;3.47;3.17;;;17.40;93.40;;;;;;5074067;28;20445;-57
2023/09/14 00:30:57;;;;;;;10.80;3.33;;;17.40;93.40;;;;;;5074068;28;20473;-57
2023/09/14 00:33:23;;;;;;;3.03;2.70;;;17.40;93.40;;;;;;5074082;28;20452;-57
2023/09/14 00:35:50;;;;;;;2.90;2.70;;;17.30;93.40;;;;;;5074044;28;20448;-57
2023/09/14 00:38:17;;;;;;;5.50;2.50;;;17.40;93.40;;;;;;5073580;28;20449;-57
2023/09/14 00:40:45;;;;;;;4.97;3.07;;;17.40;93.40;;;;;;5073929;28;20441;-57
2023/09/14 00:43:12;;;;;;;4.20;2.47;;;17.30;93.30;;;;;;5073556;28;20979;-56
2023/09/14 00:45:39;;;;;;;3.20;2.90;;;17.30;93.30;;;;;;5075680;28;20506;-56
2023/09/14 00:48:07;;;;;;;2.97;2.30;;;17.30;93.30;;;;;;5094063;28;20440;-57
2023/09/14 00:50:35;;;;;;;3.50;2.30;;;17.20;93.40;;;;;;5089250;28;20465;-56
2023/09/14 00:53:04;;;;;;;4.00;2.20;;;17.20;93.40;;;;;;5073767;28;20441;-56
2023/09/14 00:55:31;;;;;;;2.90;2.60;;;17.20;93.40;;;;;;5074404;28;20457;-55
2023/09/14 00:57:59;;;;;;;2.50;2.30;;;17.10;93.50;;;;;;5093947;28;20443;-57
2023/09/14 01:00:27;;;;;;;2.67;2.20;;;17.10;93.40;;;;;;5086247;28;20521;-56
2023/09/14 01:02:56;;;;;;;4.73;2.77;;;17.10;93.30;;;;;;5073745;28;20456;-57
2023/09/14 01:05:24;;;;;;;3.37;2.20;;;17.10;93.40;;;;;;5093462;28;20953;-57
2023/09/14 01:07:50;;;;;;;2.10;1.63;;;17.00;93.40;;;;;;5093864;28;20444;-57
2023/09/14 01:10:17;;;;;;;2.67;2.10;;;17.00;93.40;;;;;;5093733;28;20471;-56
2023/09/14 01:12:46;;;;;;;3.50;1.70;;;17.00;93.40;;;;;;5093285;28;20486;-57
2023/09/14 01:15:19;;;;;;;3.73;2.37;;;17.00;93.40;;;;;;5093413;28;20452;-57
2023/09/14 01:17:55;;;;;;;2.10;1.90;;;16.90;93.40;;;;;;5093408;28;20434;-56
2023/09/14 01:20:39;;;;;;;3.20;2.40;;;16.90;93.40;;;;;;5093248;28;20835;-56
2023/09/14 01:23:20;;;;;;;4.60;2.00;;;16.90;93.30;;;;;;5093044;28;20909;-56
2023/09/14 01:25:52;;;;;;;3.33;2.70;;;16.90;93.40;;;;;;5093426;28;20920;-57
2023/09/14 01:28:19;;;;;;;2.20;2.00;;;16.80;93.40;;;;;;5093387;28;20875;-57
2023/09/14 01:30:46;;;;;;;2.60;2.40;;;16.80;93.40;;;;;;5093072;28;20447;-56
2023/09/14 01:33:15;;;;;;;2.53;2.33;;;16.80;93.40;;;;;;5093493;28;20447;-57
2023/09/14 01:35:50;;;;;;;3.23;2.83;;;16.80;93.40;;;;;;5093763;28;20452;-56
2023/09/14 01:38:17;;;;;;;2.87;2.60;;;16.80;93.40;;;;;;5093413;28;20499;-56
2023/09/14 01:40:45;;;;;;;4.93;2.63;;;16.80;93.40;;;;;;5093410;28;20443;-56
2023/09/14 01:43:14;;;;;;;3.53;2.53;;;16.80;93.40;;;;;;5093299;28;20450;-56
2023/09/14 01:45:42;;;;;;;6.13;2.40;;;16.70;93.30;;;;;;5093429;28;20444;-56
2023/09/14 01:48:15;;;;;;;6.57;2.97;;;16.70;93.40;;;;;;5082510;28;20444;-56
2023/09/14 01:50:42;;;;;;;2.97;2.77;;;16.70;93.40;;;;;;5078550;28;20444;-56
2023/09/14 01:53:09;;;;;;;2.63;2.43;;;16.70;93.40;;;;;;5092899;28;20450;-56
2023/09/14 01:55:35;;;;;;;2.80;2.33;;;16.70;93.40;;;;;;5093314;28;20807;-56
2023/09/14 01:58:02;;;;;;;3.57;2.43;;;16.70;93.40;;;;;;5075972;28;20445;-56
2023/09/14 02:00:30;;;;;;;2.87;2.60;;;16.60;93.30;;;;;;5072795;28;20460;-56
2023/09/14 02:02:57;;;;;;;6.70;3.20;;;16.60;93.30;;;;;;5081189;28;20452;-56
2023/09/14 02:05:24;;;;;;;3.30;3.00;;;16.60;93.40;;;;;;5072681;28;20809;-56
2023/09/14 02:07:51;;;;;;;2.80;2.60;;;16.60;93.40;;;;;;5072724;28;21039;-56
2023/09/14 02:10:19;;;;;;;3.40;3.00;;;16.60;93.70;;;;;;5083386;28;20829;-55
2023/09/14 02:12:47;;;;;;;2.53;2.33;;;16.50;93.40;;;;;;5072762;28;20480;-56
2023/09/14 02:15:13;;;;;;;2.70;2.50;;;16.50;93.40;;;;;;5073003;28;20448;-56
2023/09/14 02:17:41;;;;;;;4.43;2.50;;;16.50;93.40;;;;;;5072961;28;20457;-56
2023/09/14 02:20:09;;;;;;;2.67;2.20;;;16.50;93.50;;;;;;5073093;28;20906;-56
2023/09/14 02:22:36;;;;;;;5.73;2.70;;;16.40;93.40;;;;;;5073026;28;20471;-56
2023/09/14 02:25:03;;;;;;;2.57;2.27;;;16.50;93.60;;;;;;5072461;28;20941;-56
2023/09/14 02:27:30;;;;;;;9.73;2.33;;;16.40;93.50;;;;;;5073835;28;20444;-56
2023/09/14 02:29:57;;;;;;;3.43;2.40;;;16.40;93.50;;;;;;5076490;28;20471;-56
2023/09/14 02:32:24;;;;;;;2.50;2.30;;;16.40;93.60;;;;;;5076672;28;20487;-56
2023/09/14 02:34:52;;;;;;;3.27;2.37;;;16.30;93.60;;;;;;5076171;28;20460;-56
2023/09/14 02:37:19;;;;;;;2.40;2.20;;;16.30;93.60;;;;;;5076270;28;20457;-56
2023/09/14 02:39:45;;;;;;;2.40;2.20;;;16.30;93.70;;;;;;5076196;28;20469;-56
2023/09/14 02:42:12;;;;;;;4.23;2.10;;;16.30;93.70;;;;;;5076492;28;20440;-56
2023/09/14 02:44:39;;;;;;;3.53;2.30;;;16.30;93.60;;;;;;5087173;28;20451;-56
2023/09/14 02:47:05;;;;;;;2.57;2.40;;;16.30;93.70;;;;;;5086605;28;20950;-56
2023/09/14 02:49:32;;;;;;;3.47;2.40;;;16.30;93.60;;;;;;5076434;28;20468;-56
2023/09/14 02:52:00;;;;;;;4.70;2.40;;;16.20;93.60;;;;;;5092423;28;20988;-56
2023/09/14 02:54:27;;;;;;;1.97;1.77;;;16.20;93.60;;;;;;5083669;28;20461;-56
2023/09/14 02:56:53;;;;;;;3.17;2.27;;;16.20;93.50;;;;;;5075710;28;20941;-56
2023/09/14 02:59:20;;;;;;;4.03;2.03;;;16.20;93.50;;;;;;5075966;28;20484;-56
2023/09/14 03:01:49;;;;;;;2.17;2.00;;;16.20;93.40;;;;;;5075864;28;20444;-56
2023/09/14 03:04:16;;;;;;;2.93;2.60;;;16.20;93.40;;;;;;5075851;28;20452;-56
2023/09/14 03:06:42;;;;;;;2.33;2.20;;;16.20;93.40;;;;;;5095682;28;20448;-56
2023/09/14 03:09:10;;;;;;;5.07;2.20;;;16.10;93.40;;;;;;5095607;28;20463;-56
2023/09/14 03:11:37;;;;;;;2.00;1.83;;;16.10;93.30;;;;;;5095954;28;20480;-56
2023/09/14 03:14:04;;;;;;;3.10;2.50;;;16.10;93.30;;;;;;5095824;28;20440;-55
2023/09/14 03:16:31;;;;;;;5.97;2.23;;;16.10;93.40;;;;;;5077877;28;20445;-55
2023/09/14 03:18:57;;;;;;;5.47;2.33;;;16.00;93.30;;;;;;5090121;28;20467;-56
2023/09/14 03:21:25;;;;;;;2.60;2.40;;;16.00;93.40;;;;;;5095140;28;20446;-55
2023/09/14 03:23:52;;;;;;;2.50;2.07;;;16.00;93.40;;;;;;5095138;28;20464;-56
2023/09/14 03:26:20;;;;;;;2.27;2.10;;;16.00;93.50;;;;;;5095637;28;20450;-56
2023/09/14 03:28:50;;;;;;;2.30;2.10;;;15.90;93.50;;;;;;5095172;28;20463;-55
2023/09/14 03:31:17;;;;;;;2.00;1.90;;;15.90;93.60;;;;;;5094965;28;20452;-56
2023/09/14 03:33:44;;;;;;;6.47;2.17;;;15.90;93.50;;;;;;5094931;28;20972;-56
2023/09/14 03:36:11;;;;;;;1.80;1.70;;;15.90;93.40;;;;;;5075169;28;20950;-56
2023/09/14 03:38:38;;;;;;;1.77;1.67;;;15.90;93.40;;;;;;5074904;28;20476;-56
2023/09/14 03:41:05;;;;;;;6.43;2.17;;;15.90;93.40;;;;;;5074693;28;20441;-56
2023/09/14 03:43:33;;;;;;;2.30;1.70;;;15.90;93.40;;;;;;5074992;28;20452;-56
2023/09/14 03:45:59;;;;;;;2.03;1.70;;;15.90;93.40;;;;;;5082995;28;20455;-55
2023/09/14 03:48:26;;;;;;;2.63;1.90;;;15.80;93.20;;;;;;5095232;28;20440;-56
2023/09/14 03:50:57;;;;;;;1.73;1.63;;;15.80;93.30;;;;;;5087982;28;20448;-56
2023/09/14 03:53:23;;;;;;;1.73;1.50;;;15.80;93.60;;;;;;5080937;28;20474;-56
2023/09/14 03:55:50;;;;;;;2.90;2.07;;;15.80;93.20;;;;;;5074915;28;20441;-56
2023/09/14 03:58:17;;;;;;;3.10;1.90;;;15.80;93.20;;;;;;5085163;28;20471;-55
2023/09/14 04:00:45;;;;;;;2.87;1.90;;;15.80;93.20;;;;;;5089908;28;20445;-55
2023/09/14 04:03:11;;;;;;;3.17;2.80;;;15.70;93.20;;;;;;5090125;28;20479;-56
2023/09/14 04:05:38;;;;;;;4.20;2.40;;;15.70;93.30;;;;;;5074582;28;20445;-56
2023/09/14 04:08:07;;;;;;;2.77;2.10;;;15.70;93.40;;;;;;5074230;28;20957;-56
2023/09/14 04:10:33;;;;;;;2.00;1.80;;;15.70;93.40;;;;;;5074470;28;20476;-56
2023/09/14 04:13:25;;;;;;;2.10;1.87;;;15.60;93.40;;;;;;5074309;28;20476;-56
2023/09/14 04:15:53;;;;;;;2.10;1.90;;;15.60;93.40;;;;;;5074449;28;20444;-56
2023/09/14 04:18:19;;;;;;;2.70;1.90;;;15.60;93.30;;;;;;5073841;28;20441;-55
2023/09/14 04:20:47;;;;;;;2.80;1.37;;;15.60;93.40;;;;;;5074311;28;20444;-56
2023/09/14 04:23:14;;;;;;;3.17;1.60;;;15.60;93.40;;;;;;5074118;28;20460;-56
2023/09/14 04:25:44;;;;;;;2.27;1.90;;;15.60;93.40;;;;;;5074293;28;20445;-56
2023/09/14 04:28:11;;;;;;;1.70;1.30;;;15.50;93.30;;;;;;5074118;28;20432;-56
2023/09/14 04:30:43;;;;;;;3.80;1.80;;;15.50;93.30;;;;;;5073963;28;20519;-56
2023/09/14 04:33:11;;;;;;;2.27;1.50;;;15.50;93.30;;;;;;5074106;28;20504;-56
2023/09/14 04:35:38;;;;;;;3.30;1.43;;;15.50;93.30;;;;;;5074056;28;20448;-56
2023/09/14 04:38:06;;;;;;;1.53;1.43;;;15.50;93.40;;;;;;5074047;28;20453;-56
2023/09/14 04:40:35;;;;;;;1.50;1.40;;;15.50;93.40;;;;;;5073940;28;20504;-56
2023/09/14 04:43:01;;;;;;;2.40;1.50;;;15.40;93.30;;;;;;5073876;28;20449;-55
2023/09/14 04:45:28;;;;;;;2.73;1.60;;;15.40;93.40;;;;;;5073787;28;20471;-56
2023/09/14 04:47:55;;;;;;;1.50;1.37;;;15.40;93.40;;;;;;5073810;28;20448;-56
2023/09/14 04:50:22;;;;;;;3.00;1.50;;;15.40;93.30;;;;;;5073077;28;20468;-56
2023/09/14 04:52:49;;;;;;;2.57;1.53;;;15.40;93.30;;;;;;5073698;28;20538;-56
2023/09/14 04:55:16;;;;;;;3.00;1.20;;;15.40;93.40;;;;;;5073741;28;20441;-56
2023/09/14 04:57:42;;;;;;;1.47;1.37;;;15.40;93.40;;;;;;5073781;28;20448;-56
2023/09/14 05:00:11;;;;;;;2.07;1.80;;;15.30;93.40;;;;;;5073251;28;20866;-56
2023/09/14 05:02:39;;;;;;;1.97;1.60;;;15.40;93.50;;;;;;5073385;28;20934;-56
2023/09/14 05:05:07;;;;;;;2.40;1.50;;;15.30;93.70;;;;;;5073589;28;20452;-56
2023/09/14 05:07:35;;;;;;;2.57;1.70;;;15.30;93.40;;;;;;5073473;28;20440;-56
2023/09/14 05:10:02;;;;;;;4.40;2.00;;;15.30;93.40;;;;;;5073229;28;20495;-56
2023/09/14 05:12:29;;;;;;;2.00;1.50;;;15.30;93.40;;;;;;5073410;28;20472;-56
2023/09/14 05:14:56;;;;;;;2.40;1.40;;;15.30;93.50;;;;;;5073354;28;20456;-56
2023/09/14 05:17:22;;;;;;;2.53;1.33;;;15.20;93.50;;;;;;5073454;28;20445;-56
2023/09/14 05:19:49;;;;;;;1.83;1.67;;;15.20;93.50;;;;;;5073453;28;20465;-56
2023/09/14 05:22:16;;;;;;;1.40;1.30;;;15.20;93.60;;;;;;5073313;28;20456;-56
2023/09/14 05:24:44;;;;;;;1.43;1.33;;;15.20;93.70;;;;;;5073092;28;20464;-56
2023/09/14 05:27:11;;;;;;;1.50;1.40;;;15.10;93.70;;;;;;5073387;28;20449;-56
2023/09/14 05:29:38;;;;;;;1.63;1.53;;;15.10;93.80;;;;;;5073222;28;20460;-56
2023/09/14 05:32:05;;;;;;;1.40;1.30;;;15.10;93.90;;;;;;5072787;28;20991;-56
2023/09/14 05:34:32;;;;;;;1.70;1.60;;;15.10;93.90;;;;;;5072896;28;20958;-55
2023/09/14 05:36:58;;;;;;;2.00;1.87;;;15.10;94.00;;;;;;5073113;28;20803;-55
2023/09/14 05:39:25;;;;;;;1.70;1.60;;;15.10;94.10;;;;;;5073270;28;20460;-56
2023/09/14 05:41:54;;;;;;;1.70;1.60;;;15.20;94.10;;;;;;5073203;28;20468;-55
2023/09/14 05:44:20;;;;;;;2.43;2.23;;;15.10;94.00;;;;;;5073196;28;20449;-55
2023/09/14 05:46:47;;;;;;;2.27;2.07;;;15.20;94.10;;;;;;5078531;28;20452;-55
2023/09/14 05:49:14;;;;;;;3.30;2.00;;;15.20;94.10;;;;;;5080168;28;20559;-55
2023/09/14 05:51:40;;;;;;;1.97;1.87;;;15.20;94.10;;;;;;5083250;28;20496;-55
2023/09/14 05:54:08;;;;;;;3.50;2.13;;;15.20;94.10;;;;;;5093211;28;20510;-55
2023/09/14 05:56:34;;;;;;;2.90;2.17;;;15.30;94.30;;;;;;5092838;28;20444;-55
2023/09/14 05:59:02;;;;;;;3.20;2.30;;;15.30;94.30;;;;;;5092877;28;20927;-55
2023/09/14 06:01:29;;;;;;;2.60;2.40;;;15.30;94.40;;;;;;5078057;28;20452;-55
2023/09/14 06:03:56;;;;;;;3.20;2.70;;;15.40;94.50;;;;;;5077078;28;20448;-56
2023/09/14 06:06:22;;;;;;;3.20;2.27;;;15.40;94.50;;;;;;5077001;28;20451;-56
2023/09/14 06:08:49;;;;;;;2.97;2.50;;;15.40;94.60;;;;;;5076802;28;20526;-56
2023/09/14 06:11:16;;;;;;;4.37;3.13;;;15.40;94.70;;;;;;5076904;28;20793;-56
2023/09/14 06:13:42;;;;;;;7.10;2.93;;;15.50;94.80;;;;;;5076673;28;20480;-56
2023/09/14 06:16:11;;;;;;;4.40;2.97;;;15.50;94.90;;;;;;5076830;28;20452;-56
2023/09/14 06:18:37;;;;;;;3.60;2.93;;;15.60;95.10;;;;;;5076630;28;20464;-56
2023/09/14 06:21:04;;;;;;;6.57;3.37;;;15.50;95.00;;;;;;5076668;28;20475;-56
2023/09/14 06:23:31;;;;;;;6.60;3.50;;;15.60;95.20;;;;;;5076030;28;20827;-55
2023/09/14 06:25:58;;;;;;;5.53;3.00;;;15.60;95.30;;;;;;5076679;28;20432;-56
2023/09/14 06:28:24;;;;;;;8.27;3.90;;;15.70;95.50;;;;;;5076223;28;20547;-56
2023/09/14 06:30:51;;;;;;;4.93;3.37;;;15.70;95.70;;;;;;5076393;28;20455;-56
2023/09/14 06:33:19;;;;;;;4.23;3.37;;;15.80;95.90;;;;;;5076053;28;21027;-56
2023/09/14 06:35:46;;;;;;;4.77;4.30;;;15.80;96.00;;;;;;5076352;28;20467;-56
2023/09/14 06:38:12;;;;;;;4.00;3.30;;;15.90;96.10;;;;;;5076364;28;20448;-56
2023/09/14 06:40:40;;;;;;;6.20;4.00;;;15.90;96.20;;;;;;5076425;28;20531;-55
2023/09/14 06:43:07;;;;;;;6.63;4.73;;;16.00;96.50;;;;;;5076494;28;20447;-56
2023/09/14 06:45:34;;;;;;;5.13;4.27;;;16.10;96.60;;;;;;5076329;28;20500;-56
2023/09/14 06:48:01;;;;;;;9.87;5.50;;;16.20;96.90;;;;;;5076338;28;20468;-56
2023/09/14 06:50:29;;;;;;;7.37;4.47;;;16.20;97.00;;;;;;5076122;28;20461;-56
2023/09/14 06:52:56;;;;;;;8.40;4.83;;;16.30;97.00;;;;;;5076036;28;20526;-55
2023/09/14 06:55:23;;;;;;;7.40;5.10;;;16.40;97.10;;;;;;5076149;28;20524;-56
2023/09/14 06:57:49;;;;;;;7.93;5.40;;;16.40;97.20;;;;;;5076019;28;20441;-56
2023/09/14 07:00:20;;;;;;;8.70;5.07;;;16.50;97.30;;;;;;5075988;28;20465;-56
2023/09/14 07:02:47;;;;;;;6.13;4.70;;;16.60;97.40;;;;;;5076025;28;20418;-55
2023/09/14 07:05:14;;;;;;;10.70;5.63;;;16.70;97.60;;;;;;5075998;28;20449;-56
2023/09/14 07:07:42;;;;;;;12.40;6.40;;;16.80;97.70;;;;;;5075677;28;20440;-56
2023/09/14 07:10:10;;;;;;;12.40;5.13;;;16.90;97.70;;;;;;5076160;28;20464;-55
2023/09/14 07:12:36;;;;;;;8.20;6.00;;;17.00;97.70;;;;;;5076144;28;20444;-56
2023/09/14 07:15:04;;;;;;;6.97;6.23;;;17.10;97.70;;;;;;5075669;28;20472;-56
2023/09/14 07:17:30;;;;;;;13.67;7.33;;;17.20;97.70;;;;;;5075777;28;20815;-56
2023/09/14 07:19:57;;;;;;;10.63;7.30;;;17.30;97.70;;;;;;5076097;28;20464;-56
2023/09/14 07:22:24;;;;;;;11.67;7.10;;;17.50;97.70;;;;;;5075948;28;20448;-55
2023/09/14 07:24:52;;;;;;;10.10;8.17;;;17.50;97.60;;;;;;5075263;28;20456;-55
2023/09/14 07:27:21;;;;;;;10.07;7.27;;;17.70;97.60;;;;;;5076587;28;20444;-55
2023/09/14 07:29:48;;;;;;;10.90;8.77;;;17.80;97.50;;;;;;5076269;28;20468;-55
2023/09/14 07:32:14;;;;;;;15.57;8.90;;;17.90;97.30;;;;;;5076283;28;20452;-55
2023/09/14 07:34:41;;;;;;;12.23;10.30;;;18.00;96.90;;;;;;5075845;28;21020;-56
2023/09/14 07:37:08;;;;;;;10.40;9.30;;;18.00;96.70;;;;;;5075764;28;20444;-55
2023/09/14 07:39:35;;;;;;;14.20;8.77;;;18.10;96.60;;;;;;5075739;28;20468;-55
2023/09/14 07:42:03;;;;;;;11.53;8.00;;;18.20;96.70;;;;;;5075901;28;20479;-56
2023/09/14 07:44:30;;;;;;;9.20;7.77;;;18.30;96.60;;;;;;5074900;28;20957;-56
2023/09/14 07:46:57;;;;;;;10.00;7.27;;;18.40;96.70;;;;;;5075161;28;20448;-56
2023/09/14 07:49:23;;;;;;;7.93;6.30;;;18.60;96.20;;;;;;5075075;28;20467;-56
2023/09/14 07:51:50;;;;;;;15.03;7.23;;;18.70;95.90;;;;;;5074987;28;20441;-55
2023/09/14 07:54:17;;;;;;;8.97;7.27;;;18.80;95.80;;;;;;5075041;28;20489;-56
2023/09/14 07:56:44;;;;;;;9.83;8.83;;;18.90;95.50;;;;;;5075052;28;20514;-56
2023/09/14 07:59:12;;;;;;;15.73;8.20;;;19.10;95.20;;;;;;5074876;28;20467;-56
2023/09/14 08:01:38;;;;;;;10.13;8.00;;;19.20;94.80;;;;;;5074746;28;20445;-56
2023/09/14 08:04:05;;;;;;;16.97;8.07;;;19.30;94.60;;;;;;5074861;28;20444;-56
2023/09/14 08:06:33;;;;;;;8.17;7.27;;;19.40;94.50;;;;;;5074705;28;20452;-56
2023/09/14 08:09:01;;;;;;;9.60;6.70;;;19.60;94.50;;;;;;5074588;28;20564;-56
2023/09/14 08:11:28;;;;;;;8.60;7.40;;;19.70;94.10;;;;;;5074540;28;20449;-56
2023/09/14 08:13:54;;;;;;;7.50;6.40;;;19.90;94.10;;;;;;5074175;28;21059;-56
2023/09/14 08:16:23;;;;;;;8.53;6.40;;;20.10;93.60;;;;;;5074367;28;20436;-56
2023/09/14 08:18:52;;;;;;;7.73;6.50;;;20.20;93.40;;;;;;5074373;28;20496;-56
2023/09/14 08:21:18;;;;;;;5.63;5.13;;;20.40;93.20;;;;;;5074388;28;20445;-56
2023/09/14 08:23:45;;;;;;;9.97;7.07;;;20.60;92.80;;;;;;5074233;28;20465;-57
2023/09/14 08:26:12;;;;;;;9.63;8.60;;;20.70;92.40;;;;;;5073544;28;20432;-57
2023/09/14 08:28:38;;;;;;;14.20;9.90;;;20.90;92.10;;;;;;5074177;28;20467;-56
2023/09/14 08:31:05;;;;;;;13.23;11.87;;;21.00;91.80;;;;;;5074379;28;20448;-56
2023/09/14 08:33:33;;;;;;;16.27;12.10;;;21.20;91.60;;;;;;5073831;28;20488;-56
2023/09/14 08:36:00;;;;;;;16.90;13.53;;;21.30;91.60;;;;;;5074198;28;20465;-56
2023/09/14 08:38:26;;;;;;;13.57;12.13;;;21.50;91.20;;;;;;5073946;28;20451;-57
2023/09/14 08:40:54;;;;;;;19.80;17.70;;;21.60;90.90;;;;;;5074143;28;20448;-56
2023/09/14 08:43:21;;;;;;;22.40;19.47;;;21.80;90.70;;;;;;5075020;28;20499;-56
2023/09/14 08:45:50;;;;;;;24.70;19.73;;;21.90;90.30;;;;;;5074664;28;20802;-56
2023/09/14 08:48:20;;;;;;;26.37;21.17;;;22.00;89.60;;;;;;5073895;28;20537;-56
2023/09/14 08:50:50;;;;;;;25.77;21.90;;;22.20;88.90;;;;;;5073976;28;20497;-57
2023/09/14 08:53:17;;;;;;;26.23;22.90;;;22.30;88.90;;;;;;5074620;28;20492;-57
2023/09/14 08:55:44;;;;;;;30.20;23.47;;;22.50;88.20;;;;;;5073563;28;20933;-57
2023/09/14 08:58:12;;;;;;;28.23;23.50;;;22.70;87.90;;;;;;5073804;28;20938;-57
2023/09/14 09:00:40;;;;;;;26.20;23.17;;;22.80;87.60;;;;;;5073767;28;20831;-57
2023/09/14 09:03:07;;;;;;;24.97;22.33;;;22.90;86.70;;;;;;5073749;28;20472;-57
2023/09/14 09:05:34;;;;;;;30.10;26.70;;;23.10;85.50;;;;;;5073709;28;20444;-57
2023/09/14 09:08:03;;;;;;;25.83;22.93;;;23.10;85.70;;;;;;5073311;28;20902;-57
2023/09/14 09:10:31;;;;;;;30.80;27.47;;;23.30;84.90;;;;;;5073483;28;20984;-57
2023/09/14 09:13:00;;;;;;;27.70;24.90;;;23.40;84.40;;;;;;5073544;28;20448;-57
2023/09/14 09:15:27;;;;;;;29.70;26.63;;;23.60;84.40;;;;;;5073113;28;20492;-57
2023/09/14 09:17:54;;;;;;;28.47;25.47;;;23.80;82.90;;;;;;5073219;28;20445;-57
2023/09/14 09:20:23;;;;;;;25.63;23.13;;;23.90;81.50;;;;;;5073341;28;20460;-57
2023/09/14 09:22:51;;;;;;;30.50;25.50;;;23.90;81.00;;;;;;5074283;28;20480;-57
2023/09/14 09:25:21;;;;;;;28.63;25.70;;;24.00;80.20;;;;;;5073068;28;20480;-57
2023/09/14 09:27:47;;;;;;;31.80;26.90;;;24.10;80.30;;;;;;5073084;28;21029;-57
2023/09/14 09:30:15;;;;;;;30.07;25.80;;;24.20;79.70;;;;;;5073295;28;20461;-57
2023/09/14 09:32:43;;;;;;;34.03;27.47;;;24.20;79.20;;;;;;5073041;28;20825;-56
2023/09/14 09:35:21;;;;;;;32.47;28.90;;;24.20;78.60;;;;;;5073248;28;20523;-57
2023/09/14 09:37:49;;;;;;;30.67;27.07;;;24.30;78.80;;;;;;5072953;28;20444;-57
2023/09/14 09:40:16;;;;;;;32.47;29.07;;;24.40;78.80;;;;;;5073153;28;20969;-57
2023/09/14 09:42:45;;;;;;;25.47;23.10;;;24.50;77.90;;;;;;5073143;28;20456;-56
2023/09/14 09:45:13;;;;;;;29.10;26.00;;;24.60;77.50;;;;;;5073171;28;20474;-57
2023/09/14 09:47:41;;;;;;;30.90;27.80;;;24.70;77.00;;;;;;5073156;28;20475;-57
2023/09/14 09:50:09;;;;;;;26.23;23.70;;;24.70;76.50;;;;;;5072842;28;20982;-57
2023/09/14 09:52:37;;;;;;;26.90;24.20;;;24.80;76.30;;;;;;5072771;28;20452;-56
2023/09/14 09:55:05;;;;;;;26.83;24.10;;;25.00;75.10;;;;;;5072698;28;21016;-56
2023/09/14 09:57:36;;;;;;;24.20;22.00;;;25.30;74.50;;;;;;5072841;28;20965;-57
2023/09/14 10:00:13;;;;;;;26.67;24.13;;;25.70;72.10;;;;;;5073057;28;20460;-57
2023/09/14 10:02:41;;;;;;;20.97;18.97;;;26.20;70.00;;;;;;5073101;28;20425;-57
2023/09/14 10:05:08;;;;;;;25.50;22.07;;;26.80;68.80;;;;;;5073048;28;20436;-57
2023/09/14 10:07:40;;;;;;;24.93;19.60;;;27.40;67.30;;;;;;5073790;28;20436;-57
2023/09/14 10:10:08;;;;;;;21.40;19.50;;;27.90;62.90;;;;;;5072808;28;20467;-57
2023/09/14 10:12:38;;;;;;;14.57;13.17;;;28.40;57.10;;;;;;5072629;28;20938;-57
2023/09/14 10:15:08;;;;;;;19.20;14.53;;;28.80;54.80;;;;;;5072837;28;20465;-57
2023/09/14 10:17:36;;;;;;;17.77;15.97;;;29.20;54.90;;;;;;5071836;28;20823;-57
2023/09/14 10:20:06;;;;;;;21.13;19.33;;;29.60;54.70;;;;;;5072226;28;20461;-57
2023/09/14 10:22:33;;;;;;;20.00;18.00;;;29.90;53.70;;;;;;5072966;28;20456;-57
2023/09/14 10:25:01;;;;;;;17.63;16.03;;;30.20;52.20;;;;;;5072389;28;20972;-57
2023/09/14 10:27:30;;;;;;;16.20;14.70;;;30.40;50.80;;;;;;5072565;28;20971;-57
2023/09/14 10:29:57;;;;;;;16.47;14.97;;;30.60;50.20;;;;;;5072744;28;20476;-57
2023/09/14 10:32:26;;;;;;;13.60;12.30;;;30.70;49.90;;;;;;5072751;28;20877;-57
2023/09/14 10:34:55;;;;;;;15.53;14.23;;;30.60;48.20;;;;;;5072714;28;20504;-57
2023/09/14 10:37:24;;;;;;;17.90;16.20;;;30.50;47.70;;;;;;5072947;28;20439;-57
2023/09/14 10:39:53;;;;;;;14.60;13.17;;;30.50;48.10;;;;;;5072636;28;20486;-56
2023/09/14 10:42:19;;;;;;;16.90;15.10;;;30.60;48.20;;;;;;5072654;28;20443;-57
2023/09/14 10:44:47;;;;;;;15.80;14.40;;;30.70;47.90;;;;;;5072708;28;20451;-57
2023/09/14 10:47:17;;;;;;;13.37;12.10;;;31.00;46.60;;;;;;5072695;28;20440;-57
2023/09/14 10:49:46;;;;;;;10.23;9.20;;;31.40;45.30;;;;;;5075340;28;20474;-57
2023/09/14 10:52:13;;;;;;;11.73;10.53;;;32.10;44.60;;;;;;5076073;28;20447;-57
2023/09/14 10:54:40;;;;;;;11.00;9.90;;;32.90;42.60;;;;;;5076076;28;20482;-57
2023/09/14 10:57:21;;;;;;;12.83;11.60;;;33.80;41.00;;;;;;5075741;28;20851;-58
2023/09/14 10:59:48;;;;;;;11.53;10.10;;;34.50;37.70;;;;;;5075931;28;20463;-57
2023/09/14 11:02:49;;;;;;;11.63;10.63;;;35.10;36.70;;;;;;5075973;28;20454;-57
2023/09/14 11:05:18;;;;;;;12.00;11.00;;;35.60;34.80;;;;;;5075623;28;20899;-57
2023/09/14 11:07:47;;;;;;;10.60;9.50;;;35.90;33.20;;;;;;5076099;28;20444;-58
2023/09/14 11:10:17;;;;;;;9.83;9.03;;;35.70;32.70;;;;;;5075690;28;20312;-57
2023/09/14 11:12:44;;;;;;;9.37;8.57;;;35.00;33.60;;;;;;5075862;28;20447;-57
2023/09/14 11:15:14;;;;;;;11.30;10.17;;;34.20;34.70;;;;;;5075556;28;20589;-57
2023/09/14 11:17:42;;;;;;;11.60;10.60;;;33.40;36.40;;;;;;5075683;28;20432;-57
2023/09/14 11:20:38;;;;;;;9.40;8.60;;;32.60;38.10;;;;;;5075546;28;20501;-57
2023/09/14 11:23:07;;;;;;;9.97;9.13;;;31.80;39.90;;;;;;5075433;28;20460;-57
2023/09/14 11:25:36;;;;;;;15.10;11.23;;;31.30;41.10;;;;;;5075496;28;20516;-57
2023/09/14 11:28:04;;;;;;;11.33;10.37;;;30.70;42.10;;;;;;5075372;28;20961;-57
2023/09/14 11:30:31;;;;;;;10.57;9.67;;;30.30;43.10;;;;;;5075403;28;20513;-57
2023/09/14 11:33:00;;;;;;;9.50;8.60;;;29.90;44.00;;;;;;5075381;28;20474;-57
2023/09/14 11:35:36;;;;;;;9.23;8.43;;;29.60;44.70;;;;;;5088993;28;20482;-57
2023/09/14 11:38:05;;;;;;;10.40;9.50;;;29.20;45.10;;;;;;5095279;28;20896;-57
2023/09/14 11:40:33;;;;;;;12.00;10.80;;;29.00;45.70;;;;;;5095779;28;20484;-57
2023/09/14 11:43:25;;;;;;;10.13;9.23;;;28.70;44.70;;;;;;5096042;28;20497;-57
2023/09/14 11:45:56;;;;;;;9.57;8.63;;;28.20;44.80;;;;;;5095634;28;20425;-57
2023/09/14 11:48:23;;;;;;;8.73;8.03;;;27.90;45.70;;;;;;5095606;28;20420;-57
2023/09/14 11:50:53;;;;;;;8.50;7.70;;;27.60;47.20;;;;;;5095614;28;20497;-57
2023/09/14 11:53:22;;;;;;;6.70;6.10;;;27.80;49.00;;;;;;5094993;28;20448;-56
2023/09/14 11:55:51;;;;;;;7.27;6.67;;;28.60;48.50;;;;;;5095217;28;20475;-57
2023/09/14 11:58:17;;;;;;;7.20;6.60;;;29.70;46.30;;;;;;5095048;28;20518;-57
2023/09/14 12:00:46;;;;;;;5.83;5.43;;;30.90;43.20;;;;;;5094757;28;20850;-57
2023/09/14 12:03:12;;;;;;;6.63;6.13;;;32.20;40.10;;;;;;5094992;28;20513;-57
2023/09/14 12:05:39;;;;;;;7.03;6.43;;;33.20;38.50;;;;;;5095065;28;20435;-57
2023/09/14 12:08:12;;;;;;;6.53;6.03;;;34.20;35.90;;;;;;5095036;28;20443;-57
2023/09/14 12:10:39;;;;;;;5.80;5.20;;;35.10;34.10;;;;;;5094819;28;20464;-57
2023/09/14 12:13:11;;;;;;;6.33;5.83;;;35.90;32.70;;;;;;5094848;28;20450;-57
2023/09/14 12:15:38;;;;;;;6.53;5.93;;;36.70;30.00;;;;;;5094820;28;20474;-57
2023/09/14 12:18:05;;;;;;;6.05;5.45;;;37.30;29.90;;;;;;5094833;28;20583;-57
2023/09/14 12:20:35;;;;;;;5.90;5.40;;;37.90;29.10;;;;;;5094900;28;20228;-57
2023/09/14 12:23:02;;;;;;;6.53;5.68;;;38.30;28.30;;;;;;5094530;28;20245;-57
2023/09/14 12:25:31;;;;;;;5.60;5.20;;;38.50;27.30;;;;;;5094789;28;20242;-58
2023/09/14 12:27:59;;;;;;;6.03;5.53;;;38.50;27.60;;;;;;5094645;28;20442;-57
2023/09/14 12:30:27;;;;;;;7.07;6.45;;;38.10;27.70;;;;;;5094588;28;20217;-58
2023/09/14 12:32:54;;;;;;;6.30;5.78;;;37.50;28.00;;;;;;5094211;28;20678;-57
2023/09/14 12:35:23;;;;;;;5.80;5.30;;;36.60;29.00;;;;;;5094619;28;20298;-57
2023/09/14 12:37:51;;;;;;;6.40;5.80;;;35.70;30.20;;;;;;5094356;28;20197;-57
2023/09/14 12:40:19;;;;;;;6.77;5.50;;;35.20;31.40;;;;;;5094362;28;20237;-57
2023/09/14 12:42:47;;;;;;;6.20;5.70;;;35.60;31.10;;;;;;5094309;28;20204;-57
2023/09/14 12:45:16;;;;;;;5.40;4.90;;;36.30;29.80;;;;;;5094304;28;20197;-57